createdAt,value
2023-03-05T00:02:13.888Z,56.57
2023-03-05T00:04:42.661Z,56.79
2023-03-05T00:07:12.713Z,57.11
2023-03-05T00:09:41.584Z,57.06
2023-03-05T00:12:10.285Z,57.32
2023-03-05T00:14:38.838Z,57.63
2023-03-05T00:17:07.450Z,57.93
2023-03-05T00:19:36.060Z,57.87
2023-03-05T00:22:05.005Z,57.83
2023-03-05T00:24:33.917Z,57.60
2023-03-05T00:27:03.093Z,57.86
2023-03-05T00:29:31.912Z,58.02
2023-03-05T00:32:01.436Z,58.28
2023-03-05T00:34:30.348Z,58.02
2023-03-05T00:36:59.167Z,57.68
2023-03-05T00:39:28.043Z,57.68
2023-03-05T00:41:56.998Z,57.76
2023-03-05T00:44:25.885Z,57.99
2023-03-05T00:46:54.757Z,58.50
2023-03-05T00:49:23.950Z,58.39
2023-03-05T00:51:52.706Z,58.70
2023-03-05T00:54:22.442Z,58.89
2023-03-05T00:56:51.755Z,59.18
2023-03-05T00:59:20.970Z,59.23
2023-03-05T01:01:49.896Z,58.89
2023-03-05T01:04:18.554Z,58.60
2023-03-05T01:06:47.179Z,58.45
2023-03-05T01:09:15.908Z,58.14
2023-03-05T01:11:44.981Z,58.38
2023-03-05T01:14:14.674Z,58.65
2023-03-05T01:16:43.489Z,58.50
2023-03-05T01:19:13.563Z,58.69
2023-03-05T01:21:43.578Z,58.95
2023-03-05T01:24:12.572Z,59.22
2023-03-05T01:26:41.502Z,59.63
2023-03-05T01:29:10.260Z,59.80
2023-03-05T01:31:39.802Z,59.71
2023-03-05T01:34:08.649Z,59.77
2023-03-05T01:36:40.483Z,59.62
2023-03-05T01:39:09.478Z,59.76
2023-03-05T01:41:38.638Z,59.68
2023-03-05T01:44:07.719Z,59.56
2023-03-05T01:46:39.758Z,59.58
2023-03-05T01:49:11.656Z,59.79
2023-03-05T01:51:48.872Z,59.85
2023-03-05T01:54:21.452Z,59.75
2023-03-05T01:56:53.060Z,59.14
2023-03-05T01:59:24.140Z,59.02
2023-03-05T02:01:56.724Z,59.22
2023-03-05T02:04:33.196Z,59.70
2023-03-05T02:07:03.098Z,60.21
2023-03-05T02:09:32.006Z,60.18
2023-03-05T02:12:00.861Z,60.42
2023-03-05T02:14:30.123Z,60.37
2023-03-05T02:16:59.470Z,60.38
2023-03-05T02:19:28.973Z,60.65
2023-03-05T02:21:57.995Z,60.46
2023-03-05T02:24:37.012Z,60.18
2023-03-05T02:27:06.765Z,59.79
2023-03-05T02:29:39.887Z,59.76
2023-03-05T02:32:09.999Z,59.91
2023-03-05T02:34:39.003Z,60.07
2023-03-05T02:37:09.808Z,59.66
2023-03-05T02:39:40.071Z,59.49
2023-03-05T02:42:08.930Z,59.80
2023-03-05T02:44:40.107Z,59.92
2023-03-05T02:47:08.738Z,60.49
2023-03-05T02:49:37.751Z,60.93
2023-03-05T02:52:07.176Z,60.75
2023-03-05T02:54:35.933Z,60.73
2023-03-05T02:57:04.702Z,60.48
2023-03-05T02:59:33.630Z,60.67
2023-03-05T03:02:02.726Z,60.70
2023-03-05T03:04:31.731Z,60.84
2023-03-05T03:07:00.612Z,60.74
2023-03-05T03:09:29.827Z,60.82
2023-03-05T03:11:58.905Z,61.16
2023-03-05T03:14:28.176Z,60.92
2023-03-05T03:16:57.111Z,61.01
2023-03-05T03:19:26.058Z,61.09
2023-03-05T03:21:55.605Z,61.41
2023-03-05T03:24:24.523Z,61.37
2023-03-05T03:26:53.589Z,61.56
2023-03-05T03:29:22.632Z,61.62
2023-03-05T03:31:52.197Z,61.35
2023-03-05T03:34:21.866Z,61.29
2023-03-05T03:36:53.472Z,61.38
2023-03-05T03:39:24.002Z,61.99
2023-03-05T03:41:54.556Z,61.71
2023-03-05T03:44:23.369Z,61.60
2023-03-05T03:46:54.706Z,61.87
2023-03-05T03:49:26.213Z,62.07
2023-03-05T03:51:56.009Z,62.31
2023-03-05T03:54:25.232Z,61.98
2023-03-05T03:56:54.143Z,61.82
2023-03-05T03:59:23.060Z,61.85
2023-03-05T04:01:53.447Z,62.00
2023-03-05T04:04:22.642Z,62.29
2023-03-05T04:06:51.500Z,62.13
2023-03-05T04:09:20.539Z,62.35
2023-03-05T04:11:49.457Z,62.22
2023-03-05T04:14:18.421Z,62.11
2023-03-05T04:16:47.437Z,62.51
2023-03-05T04:19:16.308Z,62.18
2023-03-05T04:21:45.272Z,61.76
2023-03-05T04:24:14.296Z,61.81
2023-03-05T04:26:43.484Z,61.89
2023-03-05T04:29:12.313Z,62.61
2023-03-05T04:31:41.123Z,62.41
2023-03-05T04:34:10.100Z,62.25
2023-03-05T04:36:38.857Z,61.87
2023-03-05T04:39:08.089Z,61.98
2023-03-05T04:41:37.158Z,62.25
2023-03-05T04:44:06.651Z,62.37
2023-03-05T04:46:35.590Z,62.02
2023-03-05T04:49:04.700Z,61.99
2023-03-05T04:51:33.582Z,62.24
2023-03-05T04:54:02.526Z,62.78
2023-03-05T04:56:32.575Z,62.15
2023-03-05T04:59:01.979Z,61.62
2023-03-05T05:01:31.110Z,61.14
2023-03-05T05:04:00.876Z,60.64
2023-03-05T05:06:30.320Z,61.41
2023-03-05T05:08:59.223Z,61.72
2023-03-05T05:11:28.637Z,61.66
2023-03-05T05:13:57.666Z,61.86
2023-03-05T05:16:26.907Z,61.79
2023-03-05T05:18:55.953Z,61.69
2023-03-05T05:21:24.821Z,62.48
2023-03-05T05:23:53.836Z,62.65
2023-03-05T05:26:22.805Z,62.43
2023-03-05T05:28:52.275Z,62.68
2023-03-05T05:31:21.282Z,62.78
2023-03-05T05:33:50.363Z,63.38
2023-03-05T05:36:19.901Z,63.26
2023-03-05T05:38:49.540Z,62.61
2023-03-05T05:41:19.914Z,62.19
2023-03-05T05:43:49.190Z,62.08
2023-03-05T05:46:20.929Z,62.19
2023-03-05T05:48:50.020Z,62.20
2023-03-05T05:51:22.743Z,61.83
2023-03-05T05:53:52.441Z,62.38
2023-03-05T05:56:22.115Z,62.09
2023-03-05T05:58:51.359Z,62.42
2023-03-05T06:01:22.375Z,62.38
2023-03-05T06:03:52.585Z,62.33
2023-03-05T06:06:24.694Z,62.12
2023-03-05T06:08:55.166Z,61.98
2023-03-05T06:11:24.599Z,62.40
2023-03-05T06:13:53.928Z,61.22
2023-03-05T06:16:25.358Z,59.89
2023-03-05T06:18:54.643Z,58.53
2023-03-05T06:21:24.721Z,57.24
2023-03-05T06:23:53.810Z,55.99
2023-03-05T06:26:23.444Z,54.64
2023-03-05T06:28:53.065Z,53.57
2023-03-05T06:31:27.794Z,52.54
2023-03-05T06:34:01.485Z,51.30
2023-03-05T06:36:30.881Z,50.32
2023-03-05T06:38:59.849Z,49.01
2023-03-05T06:41:31.257Z,48.00
2023-03-05T06:44:02.752Z,47.53
2023-03-05T06:46:37.939Z,46.57
2023-03-05T06:49:09.024Z,45.46
2023-03-05T06:51:40.322Z,44.79
2023-03-05T06:54:13.365Z,43.70
2023-03-05T06:56:45.405Z,42.71
2023-03-05T06:59:16.598Z,41.92
2023-03-05T07:01:46.263Z,41.12
2023-03-05T07:04:16.689Z,40.58
2023-03-05T07:06:46.353Z,39.79
2023-03-05T07:09:16.962Z,39.15
2023-03-05T07:11:46.189Z,38.37
2023-03-05T07:14:15.377Z,37.77
2023-03-05T07:16:45.295Z,36.65
2023-03-05T07:19:15.163Z,35.93
2023-03-05T07:21:45.148Z,35.35
2023-03-05T07:24:14.893Z,34.87
2023-03-05T07:26:43.945Z,34.28
2023-03-05T07:29:18.971Z,33.90
2023-03-05T07:31:59.133Z,33.48
2023-03-05T07:34:31.347Z,32.96
2023-03-05T07:37:00.979Z,32.24
2023-03-05T07:39:30.744Z,31.58
2023-03-05T07:42:00.534Z,30.97
2023-03-05T07:44:32.132Z,30.27
2023-03-05T07:47:01.127Z,29.73
2023-03-05T07:49:30.161Z,29.43
2023-03-05T07:51:59.242Z,28.83
2023-03-05T07:54:28.122Z,28.46
2023-03-05T07:56:57.038Z,27.88
2023-03-05T07:59:26.008Z,27.68
2023-03-05T08:01:55.004Z,26.98
2023-03-05T08:04:24.880Z,26.87
2023-03-05T08:06:54.140Z,26.44
2023-03-05T08:09:23.181Z,26.13
2023-03-05T08:11:52.141Z,25.45
2023-03-05T08:14:21.495Z,24.96
2023-03-05T08:16:54.084Z,24.29
2023-03-05T08:19:23.922Z,23.83
2023-03-05T08:21:55.014Z,23.57
2023-03-05T08:24:29.986Z,23.59
2023-03-05T08:26:59.763Z,23.31
2023-03-05T08:29:29.116Z,23.05
2023-03-05T08:31:57.834Z,22.19
2023-03-05T08:34:27.217Z,21.98
2023-03-05T08:36:56.764Z,21.64
2023-03-05T08:39:26.145Z,21.38
2023-03-05T08:41:55.477Z,21.01
2023-03-05T08:44:25.494Z,20.35
2023-03-05T08:46:55.271Z,20.28
2023-03-05T08:49:24.294Z,19.94
2023-03-05T08:51:53.602Z,19.61
2023-03-05T08:54:22.898Z,19.46
2023-03-05T08:56:52.398Z,19.14
2023-03-05T08:59:21.608Z,19.40
2023-03-05T09:01:51.690Z,18.99
2023-03-05T09:04:21.639Z,18.73
2023-03-05T09:06:51.198Z,18.57
2023-03-05T09:09:23.847Z,18.51
2023-03-05T09:11:53.959Z,18.24
2023-03-05T09:14:23.811Z,18.07
2023-03-05T09:16:52.972Z,17.71
2023-03-05T09:19:22.579Z,17.83
2023-03-05T09:21:51.841Z,17.39
2023-03-05T09:24:21.296Z,17.02
2023-03-05T09:26:51.474Z,16.81
2023-03-05T09:29:22.031Z,16.57
2023-03-05T09:31:52.573Z,16.45
2023-03-05T09:34:22.975Z,15.98
2023-03-05T09:36:52.206Z,16.11
2023-03-05T09:39:22.124Z,16.06
2023-03-05T09:42:28.701Z,15.69
2023-03-05T09:45:11.279Z,15.57
2023-03-05T09:47:49.968Z,15.22
2023-03-05T09:50:24.040Z,14.71
2023-03-05T09:53:19.552Z,14.75
2023-03-05T09:56:14.853Z,14.20
2023-03-05T09:58:51.488Z,13.71
2023-03-05T10:01:40.697Z,13.30
2023-03-05T10:04:19.933Z,13.17
2023-03-05T10:07:07.860Z,12.77
2023-03-05T10:10:31.464Z,12.78
2023-03-05T10:13:06.333Z,12.67
2023-03-05T10:15:52.705Z,12.41
2023-03-05T10:18:42.827Z,12.24
2023-03-05T10:21:22.951Z,11.77
2023-03-05T10:24:04.130Z,11.54
2023-03-05T10:26:51.801Z,11.26
2023-03-05T10:29:38.535Z,11.18
2023-03-05T10:32:10.988Z,11.24
2023-03-05T10:34:49.804Z,11.21
2023-03-05T10:37:37.307Z,10.97
2023-03-05T10:40:30.252Z,11.00
2023-03-05T10:43:36.800Z,10.71
2023-03-05T10:46:07.550Z,10.64
2023-03-05T10:48:43.567Z,10.79
2023-03-05T10:51:34.766Z,10.47
2023-03-05T10:54:30.158Z,10.39
2023-03-05T10:57:05.342Z,10.33
2023-03-05T10:59:34.394Z,10.32
2023-03-05T11:02:09.414Z,10.17
2023-03-05T11:04:40.806Z,10.06
2023-03-05T11:07:16.153Z,10.32
2023-03-05T11:10:01.458Z,10.02
2023-03-05T11:12:37.299Z,10.18
2023-03-05T11:15:14.934Z,10.10
2023-03-05T11:17:45.406Z,10.40
2023-03-05T11:20:29.646Z,10.43
2023-03-05T11:23:11.203Z,10.53
2023-03-05T11:26:02.986Z,10.75
2023-03-05T11:28:36.976Z,10.75
2023-03-05T11:31:25.324Z,10.92
2023-03-05T11:33:56.737Z,11.09
2023-03-05T11:36:36.315Z,10.76
2023-03-05T11:39:09.136Z,10.77
2023-03-05T11:42:03.845Z,10.17
2023-03-05T11:44:42.428Z,10.31
2023-03-05T11:47:38.109Z,10.39
2023-03-05T11:50:24.690Z,10.36
2023-03-05T11:53:19.460Z,10.88
2023-03-05T11:56:13.172Z,11.32
2023-03-05T11:58:52.140Z,11.54
2023-03-05T12:01:25.532Z,11.59
2023-03-05T12:03:56.550Z,11.62
2023-03-05T12:06:43.712Z,12.38
2023-03-05T12:09:42.869Z,12.32
2023-03-05T12:12:24.899Z,12.54
2023-03-05T12:15:01.367Z,12.44
2023-03-05T12:18:08.045Z,13.05
2023-03-05T12:20:50.000Z,13.35
2023-03-05T12:23:22.236Z,13.65
2023-03-05T12:26:01.990Z,13.62
2023-03-05T12:28:37.816Z,13.44
2023-03-05T12:31:10.292Z,13.62
2023-03-05T12:33:44.697Z,13.70
2023-03-05T12:36:23.276Z,13.82
2023-03-05T12:38:54.441Z,13.39
2023-03-05T12:41:24.963Z,13.72
2023-03-05T12:44:08.395Z,13.78
2023-03-05T12:46:39.665Z,13.89
2023-03-05T12:49:39.645Z,13.42
2023-03-05T12:52:26.898Z,13.90
2023-03-05T12:55:20.762Z,13.94
2023-03-05T12:58:14.722Z,14.16
2023-03-05T13:01:08.559Z,14.84
2023-03-05T13:03:54.029Z,15.31
2023-03-05T13:06:27.003Z,14.99
2023-03-05T13:08:58.245Z,14.52
2023-03-05T13:11:31.848Z,14.38
2023-03-05T13:14:03.485Z,14.24
2023-03-05T13:16:40.145Z,14.24
2023-03-05T13:19:18.820Z,14.04
2023-03-05T13:22:01.338Z,14.21
2023-03-05T13:24:33.217Z,14.19
2023-03-05T13:27:02.683Z,13.66
2023-03-05T13:29:32.037Z,13.88
2023-03-05T13:32:04.970Z,13.81
2023-03-05T13:34:47.358Z,13.98
2023-03-05T13:37:25.180Z,13.90
2023-03-05T13:40:16.069Z,14.19
2023-03-05T13:42:45.743Z,14.92
2023-03-05T13:45:32.360Z,14.43
2023-03-05T13:48:04.812Z,14.47
2023-03-05T13:50:40.302Z,14.47
2023-03-05T13:53:28.773Z,15.08
2023-03-05T13:56:03.610Z,14.81
2023-03-05T13:58:48.296Z,14.38
2023-03-05T14:01:29.808Z,14.75
2023-03-05T14:04:16.537Z,14.82
2023-03-05T14:06:59.696Z,14.83
2023-03-05T14:09:43.650Z,15.29
2023-03-05T14:12:22.573Z,15.39
2023-03-05T14:14:52.157Z,15.43
2023-03-05T14:17:44.254Z,15.40
2023-03-05T14:20:14.238Z,16.64
2023-03-05T14:22:51.434Z,17.13
2023-03-05T14:25:34.947Z,18.28
2023-03-05T14:28:08.790Z,19.26
2023-03-05T14:30:38.530Z,19.00
2023-03-05T14:33:08.275Z,19.80
2023-03-05T14:35:39.045Z,20.19
2023-03-05T14:38:20.669Z,20.99
2023-03-05T14:40:50.777Z,22.13
2023-03-05T14:43:19.930Z,23.45
2023-03-05T14:45:49.090Z,24.70
2023-03-05T14:48:19.710Z,25.53
2023-03-05T14:50:57.344Z,25.94
2023-03-05T14:53:30.608Z,26.01
2023-03-05T14:55:59.988Z,25.69
2023-03-05T14:58:35.316Z,26.12
2023-03-05T15:01:04.703Z,26.48
2023-03-05T15:03:34.180Z,27.24
2023-03-05T15:06:04.169Z,28.24
2023-03-05T15:08:35.209Z,26.92
2023-03-05T15:11:04.789Z,26.41
2023-03-05T15:13:36.968Z,26.18
2023-03-05T15:16:08.708Z,27.18
2023-03-05T15:18:38.971Z,27.98
2023-03-05T15:21:12.132Z,27.97
2023-03-05T15:23:41.971Z,28.22
2023-03-05T15:26:15.448Z,28.91
2023-03-05T15:28:44.939Z,28.85
2023-03-05T15:31:18.876Z,29.12
2023-03-05T15:33:48.404Z,29.61
2023-03-05T15:36:18.225Z,30.07
2023-03-05T15:38:48.822Z,30.41
2023-03-05T15:41:19.772Z,30.43
2023-03-05T15:43:54.977Z,30.80
2023-03-05T15:46:25.974Z,30.98
2023-03-05T15:48:57.260Z,31.26
2023-03-05T15:51:28.591Z,31.60
2023-03-05T15:53:59.497Z,32.13
2023-03-05T15:56:29.644Z,32.75
2023-03-05T15:58:59.718Z,32.52
2023-03-05T16:01:29.972Z,33.25
2023-03-05T16:04:03.037Z,33.84
2023-03-05T16:06:35.190Z,34.99
2023-03-05T16:09:07.125Z,35.93
2023-03-05T16:11:41.726Z,36.56
2023-03-05T16:14:12.594Z,36.47
2023-03-05T16:16:43.958Z,36.42
2023-03-05T16:19:18.689Z,36.70
2023-03-05T16:21:49.484Z,36.89
2023-03-05T16:24:19.243Z,37.89
2023-03-05T16:26:48.916Z,37.87
2023-03-05T16:29:18.293Z,38.28
2023-03-05T16:31:48.488Z,38.10
2023-03-05T16:34:19.846Z,38.57
2023-03-05T16:36:53.650Z,38.81
2023-03-05T16:39:24.229Z,38.91
2023-03-05T16:41:55.479Z,39.57
2023-03-05T16:44:25.849Z,39.74
2023-03-05T16:46:58.127Z,40.14
2023-03-05T16:49:28.281Z,40.45
2023-03-05T16:52:01.373Z,40.69
2023-03-05T16:54:37.823Z,40.97
2023-03-05T16:57:09.747Z,41.53
2023-03-05T16:59:40.468Z,41.81
2023-03-05T17:02:10.753Z,42.28
2023-03-05T17:04:41.232Z,42.50
2023-03-05T17:07:12.551Z,42.75
2023-03-05T17:09:43.151Z,42.84
2023-03-05T17:12:13.338Z,42.99
2023-03-05T17:14:44.100Z,43.77
2023-03-05T17:17:14.023Z,44.14
2023-03-05T17:19:45.736Z,44.54
2023-03-05T17:22:17.781Z,44.78
2023-03-05T17:24:49.006Z,44.81
2023-03-05T17:27:23.492Z,45.30
2023-03-05T17:29:56.241Z,45.32
2023-03-05T17:32:27.773Z,45.21
2023-03-05T17:34:59.817Z,45.13
2023-03-05T17:37:31.003Z,45.14
2023-03-05T17:40:01.300Z,45.30
2023-03-05T17:42:31.433Z,44.92
2023-03-05T17:45:02.208Z,43.22
2023-03-05T17:47:33.981Z,42.80
2023-03-05T17:50:06.489Z,43.14
2023-03-05T17:52:40.107Z,43.19
2023-03-05T17:55:14.011Z,43.37
2023-03-05T17:57:44.926Z,43.39
2023-03-05T18:00:21.216Z,43.94
2023-03-05T18:02:53.064Z,44.29
2023-03-05T18:05:24.967Z,44.85
2023-03-05T18:07:56.325Z,44.79
2023-03-05T18:10:29.142Z,44.82
2023-03-05T18:13:00.690Z,44.47
2023-03-05T18:15:32.388Z,44.53
2023-03-05T18:18:03.541Z,44.58
2023-03-05T18:20:38.490Z,44.48
2023-03-05T18:23:08.712Z,44.58
2023-03-05T18:25:38.470Z,44.27
2023-03-05T18:28:11.277Z,44.33
2023-03-05T18:30:43.985Z,44.74
2023-03-05T18:33:26.072Z,44.54
2023-03-05T18:35:59.550Z,44.70
2023-03-05T18:38:32.158Z,44.90
2023-03-05T18:41:04.695Z,44.87
2023-03-05T18:43:37.697Z,44.87
2023-03-05T18:46:09.553Z,45.13
2023-03-05T18:48:39.523Z,45.55
2023-03-05T18:51:20.685Z,45.79
2023-03-05T18:53:55.490Z,46.30
2023-03-05T18:56:27.574Z,46.56
2023-03-05T18:58:58.936Z,46.88
2023-03-05T19:01:30.222Z,47.36
2023-03-05T19:04:02.665Z,47.72
2023-03-05T19:06:36.611Z,48.31
2023-03-05T19:09:40.689Z,48.60
2023-03-05T19:12:12.384Z,48.92
2023-03-05T19:14:43.410Z,49.01
2023-03-05T19:17:13.813Z,49.45
2023-03-05T19:19:45.300Z,49.68
2023-03-05T19:22:15.444Z,49.79
2023-03-05T19:24:47.477Z,50.14
2023-03-05T19:27:20.396Z,50.14
2023-03-05T19:29:51.405Z,49.98
2023-03-05T19:32:25.465Z,50.07
2023-03-05T19:34:58.872Z,50.07
2023-03-05T19:37:29.565Z,50.20
2023-03-05T19:39:59.960Z,50.09
2023-03-05T19:42:32.340Z,50.16
2023-03-05T19:45:04.765Z,50.36
2023-03-05T19:47:36.454Z,50.62
2023-03-05T19:50:09.249Z,50.86
2023-03-05T19:52:40.160Z,51.08
2023-03-05T19:55:11.589Z,51.22
2023-03-05T19:57:43.135Z,51.26
2023-03-05T20:00:14.244Z,51.53
2023-03-05T20:02:45.125Z,51.57
2023-03-05T20:05:15.052Z,51.78
2023-03-05T20:07:45.033Z,51.86
2023-03-05T20:10:14.553Z,52.13
2023-03-05T20:12:49.606Z,52.22
2023-03-05T20:15:24.195Z,52.56
2023-03-05T20:17:56.030Z,53.13
2023-03-05T20:20:26.157Z,53.43
2023-03-05T20:22:56.029Z,53.20
2023-03-05T20:25:26.120Z,53.33
2023-03-05T20:27:55.399Z,53.23
2023-03-05T20:30:25.353Z,53.36
2023-03-05T20:32:55.176Z,53.63
2023-03-05T20:35:25.654Z,53.61
2023-03-05T20:38:23.640Z,53.70
2023-03-05T20:40:56.773Z,54.19
2023-03-05T20:43:30.101Z,54.28
2023-03-05T20:46:01.907Z,54.09
2023-03-05T20:48:34.879Z,54.04
2023-03-05T20:51:20.331Z,53.87
2023-03-05T20:53:52.745Z,53.64
2023-03-05T20:56:26.465Z,53.58
2023-03-05T20:59:03.723Z,53.41
2023-03-05T21:01:39.701Z,53.58
2023-03-05T21:04:13.250Z,53.82
2023-03-05T21:06:45.786Z,54.24
2023-03-05T21:09:21.033Z,54.48
2023-03-05T21:11:59.504Z,54.67
2023-03-05T21:14:39.970Z,54.64
2023-03-05T21:17:13.123Z,54.91
2023-03-05T21:19:56.486Z,55.24
2023-03-05T21:22:34.207Z,55.67
2023-03-05T21:25:24.535Z,56.11
2023-03-05T21:28:09.583Z,56.39
2023-03-05T21:30:46.681Z,56.48
2023-03-05T21:33:32.982Z,56.53
2023-03-05T21:36:05.981Z,56.40
2023-03-05T21:38:36.629Z,56.41
2023-03-05T21:41:07.353Z,56.63
2023-03-05T21:43:39.556Z,56.34
2023-03-05T21:46:14.754Z,56.37
2023-03-05T21:48:44.970Z,56.38
2023-03-05T21:51:42.953Z,55.95
2023-03-05T21:54:15.524Z,56.13
2023-03-05T21:56:47.043Z,56.54
2023-03-05T21:59:17.868Z,56.66
2023-03-05T22:01:49.932Z,56.95
2023-03-05T22:04:22.264Z,57.25
2023-03-05T22:06:52.682Z,57.46
2023-03-05T22:09:22.378Z,57.79
2023-03-05T22:11:51.533Z,58.29
2023-03-05T22:14:21.875Z,58.65
2023-03-05T22:16:55.793Z,58.46
2023-03-05T22:19:24.950Z,58.50
2023-03-05T22:21:54.366Z,58.71
2023-03-05T22:24:28.833Z,58.72
2023-03-05T22:26:58.634Z,58.91
2023-03-05T22:29:29.336Z,58.72
2023-03-05T22:31:59.434Z,58.49
2023-03-05T22:34:29.653Z,58.34
2023-03-05T22:36:59.117Z,57.97
2023-03-05T22:39:28.464Z,57.90
2023-03-05T22:41:57.522Z,57.54
2023-03-05T22:44:26.652Z,57.36
2023-03-05T22:46:55.982Z,57.39
2023-03-05T22:49:26.036Z,57.74
2023-03-05T22:51:55.391Z,57.91
2023-03-05T22:54:24.762Z,58.14
2023-03-05T22:56:53.613Z,57.93
2023-03-05T22:59:22.841Z,57.60
2023-03-05T23:01:51.968Z,57.64
2023-03-05T23:04:53.779Z,57.96
2023-03-05T23:07:29.856Z,58.37
2023-03-05T23:10:12.784Z,58.46
2023-03-05T23:12:47.104Z,58.40
2023-03-05T23:15:23.164Z,58.27
2023-03-05T23:17:54.506Z,58.14
2023-03-05T23:20:28.241Z,58.21
2023-03-05T23:22:58.967Z,58.19
2023-03-05T23:25:31.422Z,58.16
2023-03-05T23:28:01.282Z,58.10
2023-03-05T23:30:37.828Z,58.24
2023-03-05T23:33:14.510Z,58.16
2023-03-05T23:35:53.117Z,58.44
2023-03-05T23:38:23.723Z,58.53
2023-03-05T23:40:56.053Z,58.31
2023-03-05T23:43:27.497Z,58.09
2023-03-05T23:45:58.121Z,58.34
2023-03-05T23:48:29.729Z,58.72
2023-03-05T23:50:59.016Z,58.66
2023-03-05T23:53:31.888Z,58.67
2023-03-05T23:56:01.557Z,58.44
2023-03-05T23:58:30.760Z,58.39
